sensor_id;sensor_type;location;lat;lon;timestamp;P1;durP1;ratioP1;P2;durP2;ratioP2
18076;SDS011;9165;45.714;11.362;2023-02-28T00:00:17;12.37;;;7.67;;
18076;SDS011;9165;45.714;11.362;2023-02-28T00:02:44;17.57;;;7.87;;
18076;SDS011;9165;45.714;11.362;2023-02-28T00:05:12;13.43;;;8.60;;
18076;SDS011;9165;45.714;11.362;2023-02-28T00:07:39;12.57;;;7.97;;
18076;SDS011;9165;45.714;11.362;2023-02-28T00:10:07;14.37;;;8.23;;
18076;SDS011;9165;45.714;11.362;2023-02-28T00:12:34;10.83;;;7.20;;
18076;SDS011;9165;45.714;11.362;2023-02-28T00:15:03;12.90;;;8.03;;
18076;SDS011;9165;45.714;11.362;2023-02-28T00:17:31;12.53;;;7.80;;
18076;SDS011;9165;45.714;11.362;2023-02-28T00:19:57;9.67;;;7.63;;
18076;SDS011;9165;45.714;11.362;2023-02-28T00:22:29;14.17;;;8.00;;
18076;SDS011;9165;45.714;11.362;2023-02-28T00:24:56;13.40;;;8.17;;
18076;SDS011;9165;45.714;11.362;2023-02-28T00:27:23;12.17;;;7.67;;
18076;SDS011;9165;45.714;11.362;2023-02-28T00:29:49;18.90;;;7.77;;
18076;SDS011;9165;45.714;11.362;2023-02-28T00:32:17;13.00;;;7.43;;
18076;SDS011;9165;45.714;11.362;2023-02-28T00:34:44;12.63;;;7.30;;
18076;SDS011;9165;45.714;11.362;2023-02-28T00:37:10;12.03;;;7.90;;
18076;SDS011;9165;45.714;11.362;2023-02-28T00:39:38;11.83;;;8.20;;
18076;SDS011;9165;45.714;11.362;2023-02-28T00:42:06;10.07;;;7.03;;
18076;SDS011;9165;45.714;11.362;2023-02-28T00:44:33;13.93;;;7.60;;
18076;SDS011;9165;45.714;11.362;2023-02-28T00:47:00;11.27;;;7.93;;
18076;SDS011;9165;45.714;11.362;2023-02-28T00:49:28;12.87;;;8.27;;
18076;SDS011;9165;45.714;11.362;2023-02-28T00:51:55;13.47;;;7.60;;
18076;SDS011;9165;45.714;11.362;2023-02-28T00:54:22;11.27;;;7.37;;
18076;SDS011;9165;45.714;11.362;2023-02-28T00:56:48;13.90;;;8.90;;
18076;SDS011;9165;45.714;11.362;2023-02-28T00:59:15;15.03;;;7.67;;
18076;SDS011;9165;45.714;11.362;2023-02-28T01:01:43;15.07;;;9.67;;
18076;SDS011;9165;45.714;11.362;2023-02-28T01:04:10;11.03;;;7.47;;
18076;SDS011;9165;45.714;11.362;2023-02-28T01:06:38;13.03;;;7.50;;
18076;SDS011;9165;45.714;11.362;2023-02-28T01:09:05;12.60;;;7.80;;
18076;SDS011;9165;45.714;11.362;2023-02-28T01:11:32;10.20;;;7.60;;
18076;SDS011;9165;45.714;11.362;2023-02-28T01:13:59;13.53;;;7.70;;
18076;SDS011;9165;45.714;11.362;2023-02-28T01:16:25;10.47;;;7.27;;
18076;SDS011;9165;45.714;11.362;2023-02-28T01:18:52;11.47;;;7.00;;
18076;SDS011;9165;45.714;11.362;2023-02-28T01:21:20;22.33;;;7.47;;
18076;SDS011;9165;45.714;11.362;2023-02-28T01:23:48;20.63;;;8.70;;
18076;SDS011;9165;45.714;11.362;2023-02-28T01:26:15;11.23;;;7.67;;
18076;SDS011;9165;45.714;11.362;2023-02-28T01:28:42;13.73;;;7.57;;
18076;SDS011;9165;45.714;11.362;2023-02-28T01:31:09;11.97;;;7.00;;
18076;SDS011;9165;45.714;11.362;2023-02-28T01:33:35;11.90;;;8.10;;
18076;SDS011;9165;45.714;11.362;2023-02-28T01:36:03;10.17;;;6.67;;
18076;SDS011;9165;45.714;11.362;2023-02-28T01:38:30;14.17;;;8.10;;
18076;SDS011;9165;45.714;11.362;2023-02-28T01:40:58;14.80;;;6.90;;
18076;SDS011;9165;45.714;11.362;2023-02-28T01:43:25;10.73;;;7.00;;
18076;SDS011;9165;45.714;11.362;2023-02-28T01:45:53;11.17;;;7.03;;
18076;SDS011;9165;45.714;11.362;2023-02-28T01:48:21;11.00;;;7.17;;
18076;SDS011;9165;45.714;11.362;2023-02-28T01:50:51;23.87;;;6.97;;
18076;SDS011;9165;45.714;11.362;2023-02-28T01:53:19;14.43;;;7.90;;
18076;SDS011;9165;45.714;11.362;2023-02-28T01:55:48;11.87;;;6.83;;
18076;SDS011;9165;45.714;11.362;2023-02-28T01:58:17;10.07;;;5.90;;
18076;SDS011;9165;45.714;11.362;2023-02-28T02:00:44;25.73;;;7.23;;
18076;SDS011;9165;45.714;11.362;2023-02-28T02:03:12;10.53;;;7.23;;
18076;SDS011;9165;45.714;11.362;2023-02-28T02:05:40;14.43;;;7.43;;
18076;SDS011;9165;45.714;11.362;2023-02-28T02:08:07;12.83;;;7.13;;
18076;SDS011;9165;45.714;11.362;2023-02-28T02:10:35;11.83;;;6.93;;
18076;SDS011;9165;45.714;11.362;2023-02-28T02:13:08;9.67;;;6.13;;
18076;SDS011;9165;45.714;11.362;2023-02-28T02:15:38;9.47;;;6.97;;
18076;SDS011;9165;45.714;11.362;2023-02-28T02:18:08;9.77;;;6.40;;
18076;SDS011;9165;45.714;11.362;2023-02-28T02:26:07;9.57;;;5.77;;
18076;SDS011;9165;45.714;11.362;2023-02-28T02:31:37;10.50;;;5.87;;
18076;SDS011;9165;45.714;11.362;2023-02-28T02:34:15;10.33;;;6.50;;
18076;SDS011;9165;45.714;11.362;2023-02-28T02:36:49;11.73;;;6.90;;
18076;SDS011;9165;45.714;11.362;2023-02-28T02:39:19;9.17;;;6.37;;
18076;SDS011;9165;45.714;11.362;2023-02-28T02:41:48;10.27;;;6.07;;
18076;SDS011;9165;45.714;11.362;2023-02-28T02:44:18;7.80;;;6.43;;
18076;SDS011;9165;45.714;11.362;2023-02-28T02:46:47;10.50;;;6.53;;
18076;SDS011;9165;45.714;11.362;2023-02-28T02:49:18;10.53;;;5.93;;
18076;SDS011;9165;45.714;11.362;2023-02-28T02:51:46;10.20;;;6.77;;
18076;SDS011;9165;45.714;11.362;2023-02-28T02:54:14;9.33;;;6.83;;
18076;SDS011;9165;45.714;11.362;2023-02-28T02:56:42;8.43;;;6.00;;
18076;SDS011;9165;45.714;11.362;2023-02-28T02:59:10;10.93;;;6.03;;
18076;SDS011;9165;45.714;11.362;2023-02-28T03:01:37;9.20;;;6.10;;
18076;SDS011;9165;45.714;11.362;2023-02-28T03:04:06;9.43;;;6.17;;
18076;SDS011;9165;45.714;11.362;2023-02-28T03:06:35;7.63;;;6.23;;
18076;SDS011;9165;45.714;11.362;2023-02-28T03:09:02;7.57;;;6.30;;
18076;SDS011;9165;45.714;11.362;2023-02-28T03:11:29;11.50;;;6.00;;
18076;SDS011;9165;45.714;11.362;2023-02-28T03:14:03;10.17;;;6.57;;
18076;SDS011;9165;45.714;11.362;2023-02-28T03:16:35;12.50;;;6.83;;
18076;SDS011;9165;45.714;11.362;2023-02-28T03:19:05;8.83;;;6.50;;
18076;SDS011;9165;45.714;11.362;2023-02-28T03:21:37;10.43;;;6.70;;
18076;SDS011;9165;45.714;11.362;2023-02-28T03:24:07;15.80;;;8.00;;
18076;SDS011;9165;45.714;11.362;2023-02-28T03:26:36;16.60;;;7.27;;
18076;SDS011;9165;45.714;11.362;2023-02-28T03:29:07;13.77;;;6.80;;
18076;SDS011;9165;45.714;11.362;2023-02-28T03:31:38;10.33;;;6.37;;
18076;SDS011;9165;45.714;11.362;2023-02-28T03:34:06;14.10;;;6.53;;
18076;SDS011;9165;45.714;11.362;2023-02-28T03:36:37;10.30;;;6.97;;
18076;SDS011;9165;45.714;11.362;2023-02-28T03:39:09;14.47;;;6.43;;
18076;SDS011;9165;45.714;11.362;2023-02-28T03:41:38;8.47;;;6.60;;
18076;SDS011;9165;45.714;11.362;2023-02-28T03:44:09;8.07;;;6.00;;
18076;SDS011;9165;45.714;11.362;2023-02-28T03:46:41;10.97;;;6.80;;
18076;SDS011;9165;45.714;11.362;2023-02-28T03:49:11;11.03;;;7.03;;
18076;SDS011;9165;45.714;11.362;2023-02-28T03:51:41;9.73;;;6.87;;
18076;SDS011;9165;45.714;11.362;2023-02-28T03:54:09;11.53;;;6.93;;
18076;SDS011;9165;45.714;11.362;2023-02-28T03:56:39;9.47;;;6.97;;
18076;SDS011;9165;45.714;11.362;2023-02-28T03:59:08;8.57;;;5.67;;
18076;SDS011;9165;45.714;11.362;2023-02-28T04:01:37;9.07;;;7.03;;
18076;SDS011;9165;45.714;11.362;2023-02-28T04:04:06;11.10;;;7.17;;
18076;SDS011;9165;45.714;11.362;2023-02-28T04:06:33;9.37;;;6.13;;
18076;SDS011;9165;45.714;11.362;2023-02-28T04:09:01;9.00;;;6.37;;
18076;SDS011;9165;45.714;11.362;2023-02-28T04:11:30;11.30;;;6.40;;
18076;SDS011;9165;45.714;11.362;2023-02-28T04:13:59;10.37;;;6.50;;
18076;SDS011;9165;45.714;11.362;2023-02-28T04:16:27;10.57;;;6.80;;
18076;SDS011;9165;45.714;11.362;2023-02-28T04:18:53;11.53;;;7.20;;
18076;SDS011;9165;45.714;11.362;2023-02-28T04:21:27;12.63;;;7.03;;
18076;SDS011;9165;45.714;11.362;2023-02-28T04:23:54;9.03;;;6.33;;
18076;SDS011;9165;45.714;11.362;2023-02-28T04:26:22;8.23;;;5.87;;
18076;SDS011;9165;45.714;11.362;2023-02-28T04:28:48;10.57;;;7.07;;
18076;SDS011;9165;45.714;11.362;2023-02-28T04:31:15;13.20;;;6.67;;
18076;SDS011;9165;45.714;11.362;2023-02-28T04:33:41;10.07;;;6.47;;
18076;SDS011;9165;45.714;11.362;2023-02-28T04:36:08;10.60;;;6.47;;
18076;SDS011;9165;45.714;11.362;2023-02-28T04:38:35;9.57;;;6.37;;
18076;SDS011;9165;45.714;11.362;2023-02-28T04:41:02;12.07;;;6.77;;
18076;SDS011;9165;45.714;11.362;2023-02-28T04:43:30;10.27;;;6.03;;
18076;SDS011;9165;45.714;11.362;2023-02-28T04:45:57;9.77;;;6.70;;
18076;SDS011;9165;45.714;11.362;2023-02-28T04:48:24;12.73;;;6.67;;
18076;SDS011;9165;45.714;11.362;2023-02-28T04:50:51;11.67;;;6.77;;
18076;SDS011;9165;45.714;11.362;2023-02-28T04:53:18;8.87;;;6.87;;
18076;SDS011;9165;45.714;11.362;2023-02-28T04:55:44;8.07;;;6.47;;
18076;SDS011;9165;45.714;11.362;2023-02-28T04:58:11;7.43;;;5.37;;
18076;SDS011;9165;45.714;11.362;2023-02-28T05:00:39;8.97;;;6.10;;
18076;SDS011;9165;45.714;11.362;2023-02-28T05:03:05;12.63;;;6.27;;
18076;SDS011;9165;45.714;11.362;2023-02-28T05:05:32;9.93;;;5.70;;
18076;SDS011;9165;45.714;11.362;2023-02-28T05:07:59;12.03;;;6.33;;
18076;SDS011;9165;45.714;11.362;2023-02-28T05:10:25;8.97;;;6.07;;
18076;SDS011;9165;45.714;11.362;2023-02-28T05:12:52;8.60;;;6.07;;
18076;SDS011;9165;45.714;11.362;2023-02-28T05:15:18;8.93;;;6.20;;
18076;SDS011;9165;45.714;11.362;2023-02-28T05:17:47;10.87;;;6.10;;
18076;SDS011;9165;45.714;11.362;2023-02-28T05:20:14;7.67;;;5.77;;
18076;SDS011;9165;45.714;11.362;2023-02-28T05:22:40;7.30;;;5.40;;
18076;SDS011;9165;45.714;11.362;2023-02-28T05:25:08;11.87;;;5.40;;
18076;SDS011;9165;45.714;11.362;2023-02-28T05:27:36;7.73;;;6.13;;
18076;SDS011;9165;45.714;11.362;2023-02-28T05:30:03;8.27;;;6.23;;
18076;SDS011;9165;45.714;11.362;2023-02-28T05:32:31;9.67;;;6.00;;
18076;SDS011;9165;45.714;11.362;2023-02-28T05:34:59;8.97;;;6.17;;
18076;SDS011;9165;45.714;11.362;2023-02-28T05:37:25;9.33;;;6.00;;
18076;SDS011;9165;45.714;11.362;2023-02-28T05:39:52;9.27;;;6.03;;
18076;SDS011;9165;45.714;11.362;2023-02-28T05:42:18;8.20;;;6.37;;
18076;SDS011;9165;45.714;11.362;2023-02-28T05:44:45;13.80;;;6.50;;
18076;SDS011;9165;45.714;11.362;2023-02-28T05:47:12;9.70;;;6.40;;
18076;SDS011;9165;45.714;11.362;2023-02-28T05:49:40;8.93;;;6.37;;
18076;SDS011;9165;45.714;11.362;2023-02-28T05:52:08;10.70;;;7.03;;
18076;SDS011;9165;45.714;11.362;2023-02-28T05:54:35;9.43;;;6.63;;
18076;SDS011;9165;45.714;11.362;2023-02-28T05:57:02;12.63;;;6.97;;
18076;SDS011;9165;45.714;11.362;2023-02-28T05:59:28;11.50;;;8.07;;
18076;SDS011;9165;45.714;11.362;2023-02-28T06:01:55;11.63;;;7.27;;
18076;SDS011;9165;45.714;11.362;2023-02-28T06:04:21;10.73;;;6.87;;
18076;SDS011;9165;45.714;11.362;2023-02-28T06:06:48;9.17;;;6.17;;
18076;SDS011;9165;45.714;11.362;2023-02-28T06:09:17;11.23;;;7.50;;
18076;SDS011;9165;45.714;11.362;2023-02-28T06:11:44;8.10;;;6.37;;
18076;SDS011;9165;45.714;11.362;2023-02-28T06:14:12;11.57;;;6.47;;
18076;SDS011;9165;45.714;11.362;2023-02-28T06:16:40;12.17;;;7.33;;
18076;SDS011;9165;45.714;11.362;2023-02-28T06:19:06;11.37;;;7.03;;
18076;SDS011;9165;45.714;11.362;2023-02-28T06:21:33;12.30;;;7.73;;
18076;SDS011;9165;45.714;11.362;2023-02-28T06:23:59;15.50;;;8.13;;
18076;SDS011;9165;45.714;11.362;2023-02-28T06:26:27;10.13;;;6.93;;
18076;SDS011;9165;45.714;11.362;2023-02-28T06:28:54;11.13;;;7.03;;
18076;SDS011;9165;45.714;11.362;2023-02-28T06:31:21;11.63;;;8.23;;
18076;SDS011;9165;45.714;11.362;2023-02-28T06:33:48;10.93;;;7.00;;
18076;SDS011;9165;45.714;11.362;2023-02-28T06:36:15;12.03;;;7.33;;
18076;SDS011;9165;45.714;11.362;2023-02-28T06:38:42;9.40;;;6.73;;
18076;SDS011;9165;45.714;11.362;2023-02-28T06:41:09;9.90;;;6.97;;
18076;SDS011;9165;45.714;11.362;2023-02-28T06:43:38;11.77;;;7.57;;
18076;SDS011;9165;45.714;11.362;2023-02-28T06:46:07;16.57;;;7.33;;
18076;SDS011;9165;45.714;11.362;2023-02-28T06:48:34;14.10;;;6.93;;
18076;SDS011;9165;45.714;11.362;2023-02-28T06:51:01;14.70;;;7.43;;
18076;SDS011;9165;45.714;11.362;2023-02-28T06:53:28;12.20;;;6.60;;
18076;SDS011;9165;45.714;11.362;2023-02-28T06:55:54;10.80;;;6.90;;
18076;SDS011;9165;45.714;11.362;2023-02-28T06:58:21;9.93;;;6.80;;
18076;SDS011;9165;45.714;11.362;2023-02-28T07:00:51;11.60;;;7.23;;
18076;SDS011;9165;45.714;11.362;2023-02-28T07:03:18;16.00;;;6.97;;
18076;SDS011;9165;45.714;11.362;2023-02-28T07:05:45;15.37;;;7.17;;
18076;SDS011;9165;45.714;11.362;2023-02-28T07:08:11;10.23;;;7.33;;
18076;SDS011;9165;45.714;11.362;2023-02-28T07:10:38;13.40;;;6.93;;
18076;SDS011;9165;45.714;11.362;2023-02-28T07:13:06;12.90;;;6.77;;
18076;SDS011;9165;45.714;11.362;2023-02-28T07:15:33;9.47;;;6.50;;
18076;SDS011;9165;45.714;11.362;2023-02-28T07:18:01;12.63;;;6.97;;
18076;SDS011;9165;45.714;11.362;2023-02-28T07:20:28;10.30;;;6.77;;
18076;SDS011;9165;45.714;11.362;2023-02-28T07:22:55;15.03;;;6.67;;
18076;SDS011;9165;45.714;11.362;2023-02-28T07:25:21;20.30;;;6.83;;
18076;SDS011;9165;45.714;11.362;2023-02-28T07:27:48;11.30;;;5.77;;
18076;SDS011;9165;45.714;11.362;2023-02-28T07:30:15;7.73;;;4.93;;
18076;SDS011;9165;45.714;11.362;2023-02-28T07:32:41;11.97;;;5.60;;
18076;SDS011;9165;45.714;11.362;2023-02-28T07:35:09;6.83;;;4.97;;
18076;SDS011;9165;45.714;11.362;2023-02-28T07:37:36;9.03;;;6.03;;
18076;SDS011;9165;45.714;11.362;2023-02-28T07:40:03;8.60;;;5.23;;
18076;SDS011;9165;45.714;11.362;2023-02-28T07:42:33;7.67;;;5.50;;
18076;SDS011;9165;45.714;11.362;2023-02-28T07:45:00;7.03;;;4.57;;
18076;SDS011;9165;45.714;11.362;2023-02-28T07:47:26;13.17;;;5.43;;
18076;SDS011;9165;45.714;11.362;2023-02-28T07:49:54;10.13;;;5.83;;
18076;SDS011;9165;45.714;11.362;2023-02-28T07:52:23;10.40;;;6.30;;
18076;SDS011;9165;45.714;11.362;2023-02-28T07:54:49;8.70;;;4.93;;
18076;SDS011;9165;45.714;11.362;2023-02-28T07:57:16;7.27;;;5.40;;
18076;SDS011;9165;45.714;11.362;2023-02-28T07:59:43;8.67;;;5.30;;
18076;SDS011;9165;45.714;11.362;2023-02-28T08:02:10;7.50;;;5.57;;
18076;SDS011;9165;45.714;11.362;2023-02-28T08:04:38;12.60;;;5.43;;
18076;SDS011;9165;45.714;11.362;2023-02-28T08:07:04;10.97;;;6.33;;
18076;SDS011;9165;45.714;11.362;2023-02-28T08:09:32;9.07;;;5.80;;
18076;SDS011;9165;45.714;11.362;2023-02-28T08:11:59;7.77;;;5.47;;
18076;SDS011;9165;45.714;11.362;2023-02-28T08:14:25;8.00;;;5.50;;
18076;SDS011;9165;45.714;11.362;2023-02-28T08:16:52;8.37;;;5.10;;
18076;SDS011;9165;45.714;11.362;2023-02-28T08:19:19;7.40;;;5.00;;
18076;SDS011;9165;45.714;11.362;2023-02-28T08:21:46;6.80;;;5.07;;
18076;SDS011;9165;45.714;11.362;2023-02-28T08:24:12;8.10;;;5.37;;
18076;SDS011;9165;45.714;11.362;2023-02-28T08:26:42;10.57;;;5.43;;
18076;SDS011;9165;45.714;11.362;2023-02-28T08:29:09;7.93;;;5.23;;
18076;SDS011;9165;45.714;11.362;2023-02-28T08:31:36;10.77;;;5.40;;
18076;SDS011;9165;45.714;11.362;2023-02-28T08:34:04;8.27;;;5.13;;
18076;SDS011;9165;45.714;11.362;2023-02-28T08:36:31;6.53;;;5.10;;
18076;SDS011;9165;45.714;11.362;2023-02-28T08:38:58;8.33;;;4.57;;
18076;SDS011;9165;45.714;11.362;2023-02-28T08:41:24;5.90;;;4.47;;
18076;SDS011;9165;45.714;11.362;2023-02-28T08:43:52;6.77;;;5.10;;
18076;SDS011;9165;45.714;11.362;2023-02-28T08:46:19;6.90;;;5.50;;
18076;SDS011;9165;45.714;11.362;2023-02-28T08:48:46;8.07;;;5.27;;
18076;SDS011;9165;45.714;11.362;2023-02-28T08:51:14;7.60;;;5.10;;
18076;SDS011;9165;45.714;11.362;2023-02-28T08:53:41;6.20;;;4.90;;
18076;SDS011;9165;45.714;11.362;2023-02-28T08:56:08;8.13;;;5.13;;
18076;SDS011;9165;45.714;11.362;2023-02-28T08:58:35;6.80;;;4.90;;
18076;SDS011;9165;45.714;11.362;2023-02-28T09:01:08;9.03;;;5.13;;
18076;SDS011;9165;45.714;11.362;2023-02-28T09:03:35;7.20;;;5.27;;
18076;SDS011;9165;45.714;11.362;2023-02-28T09:06:02;7.63;;;5.20;;
18076;SDS011;9165;45.714;11.362;2023-02-28T09:08:30;6.47;;;4.90;;
18076;SDS011;9165;45.714;11.362;2023-02-28T09:10:57;16.27;;;5.57;;
18076;SDS011;9165;45.714;11.362;2023-02-28T09:13:24;7.80;;;5.30;;
18076;SDS011;9165;45.714;11.362;2023-02-28T09:15:52;9.87;;;6.00;;
18076;SDS011;9165;45.714;11.362;2023-02-28T09:18:20;12.97;;;5.50;;
18076;SDS011;9165;45.714;11.362;2023-02-28T09:20:46;6.67;;;4.87;;
18076;SDS011;9165;45.714;11.362;2023-02-28T09:23:13;8.77;;;5.37;;
18076;SDS011;9165;45.714;11.362;2023-02-28T09:25:45;9.40;;;5.27;;
18076;SDS011;9165;45.714;11.362;2023-02-28T09:28:12;12.00;;;6.00;;
18076;SDS011;9165;45.714;11.362;2023-02-28T09:30:39;11.33;;;6.37;;
18076;SDS011;9165;45.714;11.362;2023-02-28T09:33:05;8.60;;;5.63;;
18076;SDS011;9165;45.714;11.362;2023-02-28T09:35:33;12.40;;;5.63;;
18076;SDS011;9165;45.714;11.362;2023-02-28T09:38:02;7.87;;;5.73;;
18076;SDS011;9165;45.714;11.362;2023-02-28T09:40:28;9.00;;;5.73;;
18076;SDS011;9165;45.714;11.362;2023-02-28T09:42:55;9.53;;;5.20;;
18076;SDS011;9165;45.714;11.362;2023-02-28T09:45:24;8.27;;;5.93;;
18076;SDS011;9165;45.714;11.362;2023-02-28T09:47:54;6.87;;;5.43;;
18076;SDS011;9165;45.714;11.362;2023-02-28T09:50:23;10.13;;;5.50;;
18076;SDS011;9165;45.714;11.362;2023-02-28T09:52:56;12.80;;;5.70;;
18076;SDS011;9165;45.714;11.362;2023-02-28T09:55:26;12.40;;;6.70;;
18076;SDS011;9165;45.714;11.362;2023-02-28T09:57:54;9.77;;;6.03;;
18076;SDS011;9165;45.714;11.362;2023-02-28T10:00:23;9.73;;;6.20;;
18076;SDS011;9165;45.714;11.362;2023-02-28T10:02:53;9.17;;;6.30;;
18076;SDS011;9165;45.714;11.362;2023-02-28T10:05:24;9.87;;;5.80;;
18076;SDS011;9165;45.714;11.362;2023-02-28T10:07:56;10.53;;;5.80;;
18076;SDS011;9165;45.714;11.362;2023-02-28T10:10:25;9.17;;;5.80;;
18076;SDS011;9165;45.714;11.362;2023-02-28T10:12:55;15.27;;;6.60;;
18076;SDS011;9165;45.714;11.362;2023-02-28T10:15:23;12.33;;;6.93;;
18076;SDS011;9165;45.714;11.362;2023-02-28T10:17:53;12.73;;;6.40;;
18076;SDS011;9165;45.714;11.362;2023-02-28T10:20:20;11.17;;;6.20;;
18076;SDS011;9165;45.714;11.362;2023-02-28T10:22:50;8.73;;;6.47;;
18076;SDS011;9165;45.714;11.362;2023-02-28T10:25:20;11.17;;;5.70;;
18076;SDS011;9165;45.714;11.362;2023-02-28T10:27:47;15.87;;;6.87;;
18076;SDS011;9165;45.714;11.362;2023-02-28T10:30:14;21.03;;;7.53;;
18076;SDS011;9165;45.714;11.362;2023-02-28T10:32:49;10.43;;;7.17;;
18076;SDS011;9165;45.714;11.362;2023-02-28T10:35:19;10.87;;;6.77;;
18076;SDS011;9165;45.714;11.362;2023-02-28T10:37:46;9.73;;;6.20;;
18076;SDS011;9165;45.714;11.362;2023-02-28T10:40:27;7.93;;;6.47;;
18076;SDS011;9165;45.714;11.362;2023-02-28T10:42:55;11.13;;;6.70;;
18076;SDS011;9165;45.714;11.362;2023-02-28T10:45:21;11.83;;;6.47;;
18076;SDS011;9165;45.714;11.362;2023-02-28T10:47:51;11.90;;;7.07;;
18076;SDS011;9165;45.714;11.362;2023-02-28T10:53:07;8.33;;;6.63;;
18076;SDS011;9165;45.714;11.362;2023-02-28T10:55:36;9.17;;;6.20;;
18076;SDS011;9165;45.714;11.362;2023-02-28T10:58:07;9.13;;;5.73;;
18076;SDS011;9165;45.714;11.362;2023-02-28T11:00:43;8.30;;;6.10;;
18076;SDS011;9165;45.714;11.362;2023-02-28T11:03:20;10.87;;;5.83;;
18076;SDS011;9165;45.714;11.362;2023-02-28T11:05:48;12.63;;;6.90;;
18076;SDS011;9165;45.714;11.362;2023-02-28T11:08:17;14.40;;;7.23;;
18076;SDS011;9165;45.714;11.362;2023-02-28T11:10:46;14.50;;;7.40;;
18076;SDS011;9165;45.714;11.362;2023-02-28T11:13:16;13.30;;;7.83;;
18076;SDS011;9165;45.714;11.362;2023-02-28T11:15:45;8.63;;;7.17;;
18076;SDS011;9165;45.714;11.362;2023-02-28T11:18:20;18.90;;;7.23;;
18076;SDS011;9165;45.714;11.362;2023-02-28T11:20:47;8.43;;;6.53;;
18076;SDS011;9165;45.714;11.362;2023-02-28T11:23:15;8.87;;;6.53;;
18076;SDS011;9165;45.714;11.362;2023-02-28T11:25:47;12.57;;;6.93;;
18076;SDS011;9165;45.714;11.362;2023-02-28T11:28:25;12.00;;;6.63;;
18076;SDS011;9165;45.714;11.362;2023-02-28T11:33:47;14.37;;;7.00;;
18076;SDS011;9165;45.714;11.362;2023-02-28T11:36:17;10.47;;;7.30;;
18076;SDS011;9165;45.714;11.362;2023-02-28T11:38:44;9.53;;;7.37;;
18076;SDS011;9165;45.714;11.362;2023-02-28T11:41:31;8.90;;;7.27;;
18076;SDS011;9165;45.714;11.362;2023-02-28T11:44:09;8.77;;;7.47;;
18076;SDS011;9165;45.714;11.362;2023-02-28T11:46:41;12.37;;;7.17;;
18076;SDS011;9165;45.714;11.362;2023-02-28T11:49:14;10.07;;;6.40;;
18076;SDS011;9165;45.714;11.362;2023-02-28T11:51:47;8.73;;;6.47;;
18076;SDS011;9165;45.714;11.362;2023-02-28T11:54:25;10.57;;;7.87;;
18076;SDS011;9165;45.714;11.362;2023-02-28T11:56:57;8.87;;;6.90;;
18076;SDS011;9165;45.714;11.362;2023-02-28T11:59:32;8.67;;;6.93;;
18076;SDS011;9165;45.714;11.362;2023-02-28T12:02:06;10.07;;;6.73;;
18076;SDS011;9165;45.714;11.362;2023-02-28T12:04:45;9.90;;;7.53;;
18076;SDS011;9165;45.714;11.362;2023-02-28T12:07:15;11.57;;;6.50;;
18076;SDS011;9165;45.714;11.362;2023-02-28T12:09:47;8.90;;;6.93;;
18076;SDS011;9165;45.714;11.362;2023-02-28T12:12:21;10.50;;;7.20;;
18076;SDS011;9165;45.714;11.362;2023-02-28T12:14:55;13.60;;;7.27;;
18076;SDS011;9165;45.714;11.362;2023-02-28T12:17:39;17.10;;;7.33;;
18076;SDS011;9165;45.714;11.362;2023-02-28T12:20:13;9.33;;;7.70;;
18076;SDS011;9165;45.714;11.362;2023-02-28T12:22:42;9.27;;;7.53;;
18076;SDS011;9165;45.714;11.362;2023-02-28T12:25:20;9.70;;;7.23;;
18076;SDS011;9165;45.714;11.362;2023-02-28T12:27:49;7.90;;;7.10;;
18076;SDS011;9165;45.714;11.362;2023-02-28T12:30:19;14.07;;;7.30;;
18076;SDS011;9165;45.714;11.362;2023-02-28T12:32:48;18.83;;;7.37;;
18076;SDS011;9165;45.714;11.362;2023-02-28T12:35:16;10.43;;;7.53;;
18076;SDS011;9165;45.714;11.362;2023-02-28T12:37:45;8.40;;;7.03;;
18076;SDS011;9165;45.714;11.362;2023-02-28T12:40:14;10.80;;;7.97;;
18076;SDS011;9165;45.714;11.362;2023-02-28T12:42:42;11.50;;;7.73;;
18076;SDS011;9165;45.714;11.362;2023-02-28T12:45:13;11.37;;;8.20;;
18076;SDS011;9165;45.714;11.362;2023-02-28T12:47:42;11.10;;;7.50;;
18076;SDS011;9165;45.714;11.362;2023-02-28T12:50:12;11.00;;;8.10;;
18076;SDS011;9165;45.714;11.362;2023-02-28T12:52:40;19.13;;;8.50;;
18076;SDS011;9165;45.714;11.362;2023-02-28T12:55:09;10.57;;;7.60;;
18076;SDS011;9165;45.714;11.362;2023-02-28T12:57:38;10.57;;;8.20;;
18076;SDS011;9165;45.714;11.362;2023-02-28T13:00:10;8.57;;;7.17;;
18076;SDS011;9165;45.714;11.362;2023-02-28T13:03:02;12.33;;;7.63;;
18076;SDS011;9165;45.714;11.362;2023-02-28T13:08:24;12.27;;;7.80;;
18076;SDS011;9165;45.714;11.362;2023-02-28T13:10:53;15.13;;;8.73;;
18076;SDS011;9165;45.714;11.362;2023-02-28T13:13:21;10.87;;;7.60;;
18076;SDS011;9165;45.714;11.362;2023-02-28T13:15:58;9.10;;;7.07;;
18076;SDS011;9165;45.714;11.362;2023-02-28T13:18:29;9.33;;;8.03;;
18076;SDS011;9165;45.714;11.362;2023-02-28T13:20:56;11.30;;;8.17;;
18076;SDS011;9165;45.714;11.362;2023-02-28T13:23:36;11.13;;;7.93;;
18076;SDS011;9165;45.714;11.362;2023-02-28T13:26:04;12.07;;;7.20;;
18076;SDS011;9165;45.714;11.362;2023-02-28T13:31:16;10.40;;;8.03;;
18076;SDS011;9165;45.714;11.362;2023-02-28T13:36:27;10.73;;;7.90;;
18076;SDS011;9165;45.714;11.362;2023-02-28T13:38:55;11.57;;;7.33;;
18076;SDS011;9165;45.714;11.362;2023-02-28T13:41:44;13.30;;;8.67;;
18076;SDS011;9165;45.714;11.362;2023-02-28T13:44:12;11.63;;;8.03;;
18076;SDS011;9165;45.714;11.362;2023-02-28T13:49:25;12.23;;;7.00;;
18076;SDS011;9165;45.714;11.362;2023-02-28T13:51:55;13.30;;;8.23;;
18076;SDS011;9165;45.714;11.362;2023-02-28T13:54:31;11.23;;;7.20;;
18076;SDS011;9165;45.714;11.362;2023-02-28T13:57:08;9.70;;;7.60;;
18076;SDS011;9165;45.714;11.362;2023-02-28T13:59:39;10.17;;;7.67;;
18076;SDS011;9165;45.714;11.362;2023-02-28T14:02:29;18.73;;;7.57;;
18076;SDS011;9165;45.714;11.362;2023-02-28T14:05:01;22.77;;;11.97;;
18076;SDS011;9165;45.714;11.362;2023-02-28T14:07:31;22.30;;;10.63;;
18076;SDS011;9165;45.714;11.362;2023-02-28T14:10:00;11.90;;;8.33;;
18076;SDS011;9165;45.714;11.362;2023-02-28T14:15:36;10.13;;;7.50;;
18076;SDS011;9165;45.714;11.362;2023-02-28T14:18:05;13.10;;;7.87;;
18076;SDS011;9165;45.714;11.362;2023-02-28T14:20:37;9.60;;;7.23;;
18076;SDS011;9165;45.714;11.362;2023-02-28T14:23:09;12.13;;;7.23;;
18076;SDS011;9165;45.714;11.362;2023-02-28T14:25:38;10.60;;;7.70;;
18076;SDS011;9165;45.714;11.362;2023-02-28T14:28:10;17.63;;;8.80;;
18076;SDS011;9165;45.714;11.362;2023-02-28T14:30:57;10.97;;;7.27;;
18076;SDS011;9165;45.714;11.362;2023-02-28T14:33:27;11.40;;;7.70;;
18076;SDS011;9165;45.714;11.362;2023-02-28T14:36:03;15.63;;;9.33;;
18076;SDS011;9165;45.714;11.362;2023-02-28T14:38:33;18.67;;;9.77;;
18076;SDS011;9165;45.714;11.362;2023-02-28T14:41:03;14.43;;;8.00;;
18076;SDS011;9165;45.714;11.362;2023-02-28T14:43:31;14.50;;;8.97;;
18076;SDS011;9165;45.714;11.362;2023-02-28T14:45:59;15.40;;;8.10;;
18076;SDS011;9165;45.714;11.362;2023-02-28T14:48:26;13.27;;;8.47;;
18076;SDS011;9165;45.714;11.362;2023-02-28T14:50:54;16.90;;;7.57;;
18076;SDS011;9165;45.714;11.362;2023-02-28T14:53:22;11.70;;;7.37;;
18076;SDS011;9165;45.714;11.362;2023-02-28T14:55:51;15.13;;;8.03;;
18076;SDS011;9165;45.714;11.362;2023-02-28T14:58:23;11.67;;;7.83;;
18076;SDS011;9165;45.714;11.362;2023-02-28T15:00:50;12.23;;;8.00;;
18076;SDS011;9165;45.714;11.362;2023-02-28T15:03:18;12.40;;;7.67;;
18076;SDS011;9165;45.714;11.362;2023-02-28T15:05:51;11.63;;;7.93;;
18076;SDS011;9165;45.714;11.362;2023-02-28T15:08:18;13.17;;;7.83;;
18076;SDS011;9165;45.714;11.362;2023-02-28T15:10:45;14.17;;;8.30;;
18076;SDS011;9165;45.714;11.362;2023-02-28T15:13:14;14.23;;;8.73;;
18076;SDS011;9165;45.714;11.362;2023-02-28T15:15:45;14.90;;;9.27;;